Time;durP1;ratioP1;P1;durP2;ratioP2;P2;SDS_P1;SDS_P2;PMS_P1;PMS_P2;Temp;Humidity;BMP_temperature;BMP_pressure;BME280_temperature;BME280_humidity;BME280_pressure;Samples;Min_cycle;Max_cycle;Signal;HPM_P1;HPM_P2
2022/03/10 00:00:50;;;;;;;34.80;11.57;;;5.30;67.80;;;;;;4789387;29;20047;-77
2022/03/10 00:03:18;;;;;;;29.60;11.85;;;5.30;67.80;;;;;;4793586;29;20063;-77
2022/03/10 00:05:45;;;;;;;35.70;13.18;;;5.40;67.90;;;;;;4790749;29;20132;-77
2022/03/10 00:08:13;;;;;;;34.55;12.88;;;5.30;67.60;;;;;;4792655;29;20089;-75
2022/03/10 00:10:40;;;;;;;32.10;12.10;;;5.50;68.10;;;;;;4808262;29;20074;-76
2022/03/10 00:13:07;;;;;;;30.00;11.55;;;5.60;67.80;;;;;;4798159;29;20107;-77
2022/03/10 00:15:34;;;;;;;33.13;12.18;;;5.70;67.30;;;;;;4792725;29;20046;-75
2022/03/10 00:18:02;;;;;;;33.60;11.95;;;5.70;67.20;;;;;;4806597;29;20078;-77
2022/03/10 00:20:29;;;;;;;31.60;11.15;;;5.70;67.90;;;;;;4795988;29;20122;-77
2022/03/10 00:22:57;;;;;;;27.50;10.40;;;5.70;67.50;;;;;;4805337;29;20047;-75
2022/03/10 00:25:24;;;;;;;26.83;10.15;;;5.70;67.60;;;;;;4796168;29;20054;-77
2022/03/10 00:27:51;;;;;;;27.55;9.77;;;5.80;67.70;;;;;;4794516;29;20784;-75
2022/03/10 00:30:19;;;;;;;29.50;9.52;;;5.80;67.60;;;;;;4808169;29;20066;-77
2022/03/10 00:32:48;;;;;;;27.23;10.65;;;5.80;67.80;;;;;;4795171;29;20081;-77
2022/03/10 00:35:21;;;;;;;27.40;9.35;;;5.60;68.20;;;;;;4808081;29;20557;-75
2022/03/10 00:37:56;;;;;;;25.38;9.27;;;5.80;68.30;;;;;;4792966;29;20100;-75
2022/03/10 00:40:24;;;;;;;28.15;10.18;;;5.80;68.40;;;;;;4794896;29;20051;-75
2022/03/10 00:42:51;;;;;;;25.50;10.02;;;5.80;68.70;;;;;;4792144;29;20051;-75
2022/03/10 00:45:18;;;;;;;25.75;10.48;;;5.90;68.40;;;;;;4806842;29;20082;-75
2022/03/10 00:47:45;;;;;;;26.95;9.48;;;5.90;68.30;;;;;;4794009;29;20061;-76
2022/03/10 00:50:13;;;;;;;27.52;9.10;;;5.90;68.00;;;;;;4793164;29;20467;-75
2022/03/10 00:52:42;;;;;;;26.17;9.32;;;5.80;69.10;;;;;;4791863;29;20054;-76
2022/03/10 00:55:11;;;;;;;23.88;9.20;;;5.90;68.80;;;;;;4807403;29;20108;-76
2022/03/10 00:57:38;;;;;;;21.52;8.43;;;6.10;68.40;;;;;;4793118;29;20053;-76
2022/03/10 01:00:09;;;;;;;20.23;8.43;;;6.00;68.60;;;;;;4794381;29;20580;-76
2022/03/10 01:02:37;;;;;;;21.77;9.30;;;6.00;68.80;;;;;;4794432;29;20043;-76
2022/03/10 01:05:05;;;;;;;23.70;9.02;;;6.10;69.20;;;;;;4797063;29;20133;-75
2022/03/10 01:07:32;;;;;;;18.48;7.88;;;6.10;69.60;;;;;;4792594;29;20050;-76
2022/03/10 01:10:00;;;;;;;20.48;7.63;;;6.20;69.90;;;;;;4804904;29;20101;-75
2022/03/10 01:12:27;;;;;;;23.77;8.60;;;6.30;70.00;;;;;;4826812;29;20111;-75
2022/03/10 01:14:54;;;;;;;19.90;8.32;;;6.40;70.20;;;;;;4795408;29;20050;-76
2022/03/10 01:17:21;;;;;;;22.13;7.97;;;6.30;70.70;;;;;;4796834;29;20132;-76
2022/03/10 01:19:48;;;;;;;23.98;9.00;;;6.20;71.60;;;;;;4811329;29;20051;-76
2022/03/10 01:22:16;;;;;;;20.63;8.38;;;6.20;71.60;;;;;;4809064;29;20107;-77
2022/03/10 01:24:45;;;;;;;22.13;9.02;;;6.20;71.90;;;;;;4807853;29;20383;-76
2022/03/10 01:27:12;;;;;;;18.52;8.20;;;6.30;72.00;;;;;;4810505;29;20095;-76
2022/03/10 01:29:39;;;;;;;22.27;9.50;;;6.30;71.80;;;;;;4825256;29;20678;-76
2022/03/10 01:32:06;;;;;;;27.75;10.00;;;6.30;72.70;;;;;;4796445;29;20051;-75
2022/03/10 01:34:34;;;;;;;23.90;9.02;;;6.30;72.40;;;;;;4810504;29;20054;-76
2022/03/10 01:37:01;;;;;;;23.25;9.35;;;6.30;72.70;;;;;;4795568;29;20121;-76
2022/03/10 01:39:32;;;;;;;19.17;8.88;;;6.40;72.70;;;;;;4796909;29;20514;-76
2022/03/10 01:42:00;;;;;;;20.83;8.82;;;6.30;72.70;;;;;;4809113;29;20145;-76
2022/03/10 01:44:27;;;;;;;20.73;8.57;;;6.40;72.80;;;;;;4810039;29;20070;-76
2022/03/10 01:46:56;;;;;;;18.55;8.35;;;6.60;72.60;;;;;;4797054;29;20125;-76
2022/03/10 01:49:23;;;;;;;21.52;8.50;;;6.50;72.80;;;;;;4826222;29;20050;-76
2022/03/10 01:51:52;;;;;;;19.88;9.40;;;6.60;72.70;;;;;;4778872;29;20046;-76
2022/03/10 01:54:20;;;;;;;26.52;9.10;;;6.50;72.90;;;;;;4810799;29;20050;-76
2022/03/10 01:56:48;;;;;;;22.88;8.90;;;6.60;73.20;;;;;;4810556;29;20104;-75
2022/03/10 01:59:15;;;;;;;20.13;8.35;;;6.40;73.20;;;;;;4794988;29;20055;-75
2022/03/10 02:01:42;;;;;;;30.58;9.43;;;6.40;73.60;;;;;;4795595;29;20439;-75
2022/03/10 02:04:09;;;;;;;23.77;9.10;;;6.30;73.70;;;;;;4781754;29;20058;-75
2022/03/10 02:06:37;;;;;;;24.85;9.68;;;6.40;73.40;;;;;;4810445;29;20070;-76
2022/03/10 02:11:51;;;;;;;23.33;9.25;;;6.60;73.10;;;;;;4810198;29;20046;-76
2022/03/10 02:17:22;;;;;;;21.35;8.80;;;6.60;73.00;;;;;;4810635;29;20070;-76
2022/03/10 02:19:57;;;;;;;23.95;8.85;;;6.50;74.00;;;;;;4811578;29;20583;-75
2022/03/10 02:22:26;;;;;;;24.23;9.50;;;6.40;74.00;;;;;;4810186;29;20058;-76
2022/03/10 02:24:54;;;;;;;23.15;9.23;;;6.40;74.30;;;;;;4794025;29;20054;-75
2022/03/10 02:27:23;;;;;;;24.15;8.10;;;6.40;74.20;;;;;;4793198;29;20450;-75
2022/03/10 02:29:53;;;;;;;21.83;8.68;;;6.40;74.80;;;;;;4795177;29;20042;-75
2022/03/10 02:32:20;;;;;;;25.40;9.52;;;6.40;74.70;;;;;;4793399;29;20803;-75
2022/03/10 02:34:48;;;;;;;23.02;8.60;;;6.40;74.90;;;;;;4808095;29;20042;-75
2022/03/10 02:37:19;;;;;;;19.02;7.78;;;6.40;75.10;;;;;;4810599;29;20046;-76
2022/03/10 02:39:47;;;;;;;24.58;8.70;;;6.40;75.50;;;;;;4796448;29;20061;-76
2022/03/10 02:42:14;;;;;;;21.92;9.02;;;6.50;75.40;;;;;;4811018;29;20042;-76
2022/03/10 02:44:46;;;;;;;22.08;8.90;;;6.50;75.80;;;;;;4810594;29;20065;-76
2022/03/10 02:47:15;;;;;;;25.20;9.77;;;6.30;76.40;;;;;;4807294;29;20053;-75
2022/03/10 02:49:43;;;;;;;22.23;8.88;;;6.40;76.40;;;;;;4794393;29;20078;-76
2022/03/10 02:52:11;;;;;;;23.23;8.25;;;6.40;76.50;;;;;;4792087;29;20115;-75
2022/03/10 02:54:43;;;;;;;22.13;7.75;;;6.40;76.40;;;;;;4824053;29;20581;-75
2022/03/10 02:57:12;;;;;;;18.67;7.05;;;6.40;76.40;;;;;;4812869;29;20127;-75
2022/03/10 02:59:39;;;;;;;19.95;7.70;;;6.50;75.50;;;;;;4809225;29;20069;-75
2022/03/10 03:02:06;;;;;;;18.65;7.30;;;6.50;75.20;;;;;;4808460;29;20466;-76
2022/03/10 03:04:34;;;;;;;18.92;7.35;;;6.60;74.80;;;;;;4808322;29;20058;-76
2022/03/10 03:07:01;;;;;;;16.77;5.97;;;6.60;74.40;;;;;;4795199;29;20070;-75
2022/03/10 03:09:28;;;;;;;15.00;5.68;;;6.50;73.60;;;;;;4809109;29;20113;-76
2022/03/10 03:11:55;;;;;;;15.43;5.00;;;6.50;72.80;;;;;;4824469;29;20058;-76
2022/03/10 03:14:23;;;;;;;12.30;4.70;;;6.40;71.90;;;;;;4808715;29;20108;-76
2022/03/10 03:16:51;;;;;;;14.13;4.80;;;6.50;71.20;;;;;;4809904;29;20475;-75
2022/03/10 03:19:19;;;;;;;14.18;4.45;;;6.40;70.60;;;;;;4808500;29;20050;-76
2022/03/10 03:21:46;;;;;;;10.57;4.35;;;6.40;69.60;;;;;;4808866;29;20413;-74
2022/03/10 03:24:14;;;;;;;9.73;3.80;;;6.40;69.20;;;;;;4795164;29;20433;-75
2022/03/10 03:26:41;;;;;;;10.30;3.58;;;6.40;68.30;;;;;;4794380;29;20061;-75
2022/03/10 03:29:09;;;;;;;10.40;3.85;;;6.40;68.00;;;;;;4813443;29;20061;-77
2022/03/10 03:31:37;;;;;;;11.65;3.85;;;6.30;67.90;;;;;;4808431;29;20050;-77
2022/03/10 03:34:10;;;;;;;9.45;3.85;;;6.20;68.20;;;;;;4826057;29;20466;-76
2022/03/10 03:36:42;;;;;;;10.18;3.65;;;6.20;67.80;;;;;;4792340;29;20088;-78
2022/03/10 03:39:11;;;;;;;10.23;3.10;;;6.40;67.70;;;;;;4796760;29;20087;-77
2022/03/10 03:41:38;;;;;;;7.72;2.80;;;6.50;67.40;;;;;;4793551;29;20051;-75
2022/03/10 03:44:08;;;;;;;8.52;2.92;;;6.60;66.60;;;;;;4792882;29;20671;-77
2022/03/10 03:46:36;;;;;;;9.70;2.80;;;6.60;65.80;;;;;;4814558;29;20050;-77
2022/03/10 03:49:07;;;;;;;6.30;2.30;;;6.20;64.90;;;;;;4796881;29;20088;-77
2022/03/10 03:51:35;;;;;;;8.05;2.53;;;6.40;64.70;;;;;;4816759;29;20563;-77
2022/03/10 03:54:03;;;;;;;7.50;2.78;;;6.40;64.20;;;;;;4829314;29;20047;-77
2022/03/10 03:56:30;;;;;;;8.93;1.77;;;6.50;63.80;;;;;;4814029;29;20458;-76
2022/03/10 03:58:57;;;;;;;4.30;1.73;;;6.20;62.60;;;;;;4828589;29;20522;-77
2022/03/10 04:01:24;;;;;;;4.88;1.67;;;6.40;62.80;;;;;;4797245;29;20438;-77
2022/03/10 04:03:52;;;;;;;6.10;1.75;;;6.50;62.50;;;;;;4812770;29;20051;-77
2022/03/10 04:06:19;;;;;;;6.68;1.83;;;6.60;61.80;;;;;;4797760;29;20138;-77
2022/03/10 04:08:46;;;;;;;7.28;1.52;;;6.50;61.10;;;;;;4812997;29;20054;-77
2022/03/10 04:11:16;;;;;;;5.88;1.45;;;6.60;61.10;;;;;;4798196;29;20109;-76
2022/03/10 04:13:44;;;;;;;5.80;1.70;;;6.70;60.10;;;;;;4815516;29;20061;-77
2022/03/10 04:16:11;;;;;;;5.25;1.50;;;6.60;59.40;;;;;;4828527;29;20050;-77
2022/03/10 04:18:38;;;;;;;4.70;1.67;;;6.50;58.60;;;;;;4812402;29;20042;-77
2022/03/10 04:21:05;;;;;;;6.45;1.77;;;6.40;58.70;;;;;;4813310;29;20110;-77
2022/03/10 04:23:33;;;;;;;5.85;1.73;;;6.50;58.90;;;;;;4813705;29;20516;-77
2022/03/10 04:26:00;;;;;;;4.82;1.50;;;6.40;58.50;;;;;;4811677;29;20103;-77
2022/03/10 04:28:27;;;;;;;3.28;1.30;;;6.50;57.90;;;;;;4813819;29;20095;-76
2022/03/10 04:30:54;;;;;;;4.90;1.25;;;6.50;57.70;;;;;;4812789;29;20050;-76
2022/03/10 04:33:22;;;;;;;2.83;1.08;;;6.40;57.50;;;;;;4797839;29;20106;-77
2022/03/10 04:35:51;;;;;;;7.43;1.77;;;6.30;57.40;;;;;;4796634;29;20053;-76
2022/03/10 04:38:19;;;;;;;4.82;1.17;;;6.20;57.50;;;;;;4797325;29;20103;-76
2022/03/10 04:40:47;;;;;;;3.78;1.52;;;6.20;57.50;;;;;;4797513;29;20066;-76
2022/03/10 04:43:14;;;;;;;4.18;0.98;;;6.30;57.30;;;;;;4795719;29;20095;-76
2022/03/10 04:45:41;;;;;;;4.03;1.15;;;6.30;56.80;;;;;;4814523;29;20054;-76
2022/03/10 04:48:09;;;;;;;4.45;1.30;;;6.40;56.90;;;;;;4796463;29;20074;-76
2022/03/10 04:50:36;;;;;;;6.60;1.17;;;6.30;56.40;;;;;;4797787;29;20134;-76
2022/03/10 04:53:04;;;;;;;5.80;1.33;;;6.20;56.50;;;;;;4812669;29;20096;-77
2022/03/10 04:55:32;;;;;;;5.85;1.50;;;6.00;57.00;;;;;;4825704;29;20050;-76
2022/03/10 04:57:59;;;;;;;3.90;1.15;;;6.00;56.70;;;;;;4811333;29;20103;-77
2022/03/10 05:00:29;;;;;;;6.15;1.42;;;6.20;56.40;;;;;;4811573;29;20042;-76
2022/03/10 05:02:56;;;;;;;3.92;1.00;;;6.20;56.30;;;;;;4814405;29;20074;-77
2022/03/10 05:05:23;;;;;;;3.30;0.98;;;6.10;55.50;;;;;;4810320;29;20072;-76
2022/03/10 05:07:51;;;;;;;4.78;1.27;;;6.10;55.10;;;;;;4795247;29;21064;-76
2022/03/10 05:10:18;;;;;;;4.00;1.05;;;6.20;55.10;;;;;;4826197;29;20057;-75
2022/03/10 05:12:53;;;;;;;5.05;1.35;;;6.20;55.30;;;;;;4808561;29;20422;-76
2022/03/10 05:15:22;;;;;;;3.72;1.50;;;6.20;54.70;;;;;;4813453;29;20046;-76
2022/03/10 05:17:50;;;;;;;3.58;1.15;;;6.20;54.50;;;;;;4810745;29;20046;-76
2022/03/10 05:20:17;;;;;;;3.78;0.90;;;6.10;54.10;;;;;;4810273;29;20134;-76
2022/03/10 05:22:56;;;;;;;3.08;1.48;;;6.20;53.70;;;;;;4811092;29;20058;-76
2022/03/10 05:25:25;;;;;;;3.58;1.13;;;6.20;53.00;;;;;;4809986;29;20135;-76
2022/03/10 05:27:52;;;;;;;4.18;1.52;;;6.20;53.10;;;;;;4811230;29;20054;-75
2022/03/10 05:30:20;;;;;;;4.93;1.23;;;6.10;52.50;;;;;;4799914;29;20046;-77
2022/03/10 05:32:47;;;;;;;3.10;1.33;;;6.00;52.80;;;;;;4824610;29;20051;-77
2022/03/10 05:35:16;;;;;;;4.80;1.30;;;6.10;52.90;;;;;;4796387;29;20057;-77
2022/03/10 05:37:45;;;;;;;3.72;1.20;;;6.10;52.90;;;;;;4811232;29;20442;-77
2022/03/10 05:40:17;;;;;;;6.95;1.85;;;6.10;52.40;;;;;;4809412;29;20111;-77
2022/03/10 05:42:46;;;;;;;4.63;1.15;;;6.10;52.50;;;;;;4810670;29;20142;-76
2022/03/10 05:45:14;;;;;;;5.00;1.67;;;6.10;52.10;;;;;;4797547;29;22283;-76
2022/03/10 05:47:42;;;;;;;4.47;1.90;;;6.00;52.00;;;;;;4827053;29;20191;-77
2022/03/10 05:50:10;;;;;;;5.45;1.55;;;6.00;52.20;;;;;;4794251;29;20062;-76
2022/03/10 05:52:37;;;;;;;3.15;1.08;;;6.20;52.10;;;;;;4793464;29;20066;-76
2022/03/10 05:55:05;;;;;;;6.63;2.13;;;6.30;52.10;;;;;;4796099;29;20077;-76
2022/03/10 05:57:32;;;;;;;3.50;1.52;;;6.20;51.90;;;;;;4811965;29;20439;-77
2022/03/10 06:00:00;;;;;;;5.05;1.88;;;6.20;52.20;;;;;;4781660;29;20071;-76
2022/03/10 06:02:27;;;;;;;5.63;1.85;;;6.20;52.20;;;;;;4811129;29;20046;-76
2022/03/10 06:04:59;;;;;;;7.18;2.05;;;6.30;52.00;;;;;;4807901;29;22320;-77
2022/03/10 06:07:31;;;;;;;6.00;1.65;;;6.10;52.00;;;;;;4793464;29;20042;-77
2022/03/10 06:09:58;;;;;;;6.43;1.90;;;6.20;52.40;;;;;;4800216;29;20064;-75
2022/03/10 06:12:30;;;;;;;5.95;2.15;;;6.00;52.20;;;;;;4777885;29;20055;-75
2022/03/10 06:14:58;;;;;;;6.18;2.00;;;6.10;52.70;;;;;;4779192;29;20047;-76
2022/03/10 06:17:26;;;;;;;5.30;1.98;;;6.10;52.50;;;;;;4780108;29;20059;-76
2022/03/10 06:19:53;;;;;;;5.05;2.03;;;6.20;52.60;;;;;;4779620;29;20055;-75
2022/03/10 06:22:22;;;;;;;5.72;2.25;;;6.20;52.30;;;;;;4774799;29;20039;-75
2022/03/10 06:24:50;;;;;;;6.20;1.83;;;6.20;52.70;;;;;;4779633;29;20055;-75
2022/03/10 06:27:18;;;;;;;7.20;2.25;;;6.30;52.90;;;;;;4777728;29;20074;-75
2022/03/10 06:29:46;;;;;;;7.32;2.30;;;6.10;53.00;;;;;;4763810;29;20415;-75
2022/03/10 06:32:15;;;;;;;8.05;2.78;;;6.10;52.80;;;;;;4790714;29;20101;-75
2022/03/10 06:34:42;;;;;;;7.25;2.67;;;6.10;53.00;;;;;;4777305;29;20057;-74
2022/03/10 06:37:12;;;;;;;5.97;2.50;;;5.70;53.40;;;;;;4776376;29;20057;-75
2022/03/10 06:39:39;;;;;;;6.82;2.25;;;5.80;53.90;;;;;;4776450;29;20080;-75
2022/03/10 06:42:08;;;;;;;9.57;2.17;;;5.50;54.00;;;;;;4782032;29;20043;-75
2022/03/10 06:44:36;;;;;;;7.22;2.67;;;5.60;54.40;;;;;;4777157;29;20119;-75
2022/03/10 06:47:09;;;;;;;8.27;2.95;;;5.90;54.20;;;;;;4776022;29;20051;-77
2022/03/10 06:49:36;;;;;;;6.20;2.20;;;5.70;54.60;;;;;;4779282;29;20137;-77
2022/03/10 06:52:04;;;;;;;6.10;1.98;;;6.00;54.10;;;;;;4791890;29;20515;-77
2022/03/10 06:54:31;;;;;;;6.32;2.47;;;5.90;53.90;;;;;;4777846;29;20128;-77
2022/03/10 06:56:58;;;;;;;11.05;3.55;;;6.00;54.20;;;;;;4780473;29;20058;-76
2022/03/10 06:59:25;;;;;;;6.53;2.88;;;6.00;53.80;;;;;;4778370;29;20055;-76
2022/03/10 07:01:52;;;;;;;5.85;2.40;;;6.20;53.90;;;;;;4771038;29;20062;-76
2022/03/10 07:04:20;;;;;;;7.75;2.67;;;6.40;53.70;;;;;;4774337;29;20043;-76
2022/03/10 07:06:47;;;;;;;7.82;2.83;;;6.20;53.50;;;;;;4789071;29;20043;-76
2022/03/10 07:09:14;;;;;;;6.78;2.50;;;6.30;53.50;;;;;;4777079;29;20147;-76
2022/03/10 07:11:42;;;;;;;6.35;1.90;;;6.10;53.20;;;;;;4791316;29;20107;-76
2022/03/10 07:14:09;;;;;;;10.18;3.08;;;6.10;53.30;;;;;;4776452;29;20070;-76
2022/03/10 07:16:36;;;;;;;5.95;1.98;;;6.10;52.70;;;;;;4776990;29;20049;-76
2022/03/10 07:19:08;;;;;;;7.07;2.17;;;5.80;52.70;;;;;;4792032;29;20055;-76
2022/03/10 07:21:40;;;;;;;6.78;2.38;;;5.80;52.20;;;;;;4775525;29;20058;-76
2022/03/10 07:24:08;;;;;;;6.00;2.13;;;5.50;52.40;;;;;;4779250;29;20047;-75
2022/03/10 07:26:35;;;;;;;6.35;1.88;;;5.50;52.50;;;;;;4759283;29;20187;-76
2022/03/10 07:29:03;;;;;;;6.78;2.58;;;5.70;52.30;;;;;;4791977;29;20067;-76
2022/03/10 07:31:32;;;;;;;7.03;2.55;;;5.80;51.90;;;;;;4774908;29;20088;-77
2022/03/10 07:34:00;;;;;;;7.95;2.58;;;5.90;51.40;;;;;;4778525;29;21146;-77
2022/03/10 07:36:27;;;;;;;6.43;2.50;;;5.90;51.50;;;;;;4775884;29;20070;-76
2022/03/10 07:38:54;;;;;;;8.27;2.45;;;5.70;51.20;;;;;;4777254;29;20054;-77
2022/03/10 07:41:21;;;;;;;7.28;2.95;;;5.80;51.10;;;;;;4763166;29;20058;-77
2022/03/10 07:43:48;;;;;;;5.82;2.20;;;5.80;51.20;;;;;;4777036;29;20063;-77
2022/03/10 07:46:15;;;;;;;5.90;2.53;;;5.70;51.70;;;;;;4776454;29;20103;-77
2022/03/10 07:48:42;;;;;;;8.98;2.90;;;5.90;51.70;;;;;;4781155;29;20055;-76
2022/03/10 07:51:09;;;;;;;6.95;1.95;;;6.10;50.70;;;;;;4777437;29;20059;-77
2022/03/10 07:53:36;;;;;;;6.85;2.40;;;6.10;50.60;;;;;;4765078;29;20046;-77
2022/03/10 07:56:04;;;;;;;4.20;1.77;;;6.20;51.00;;;;;;4778481;29;20067;-77
2022/03/10 07:58:32;;;;;;;10.27;2.35;;;6.40;50.60;;;;;;4780810;29;20097;-77
2022/03/10 08:00:59;;;;;;;6.10;1.60;;;6.40;49.60;;;;;;4777328;29;20054;-77
2022/03/10 08:03:26;;;;;;;6.15;2.53;;;6.50;49.60;;;;;;4776677;29;20556;-77
2022/03/10 08:05:54;;;;;;;8.13;2.30;;;6.30;49.50;;;;;;4789051;29;20043;-77
2022/03/10 08:08:21;;;;;;;5.72;2.30;;;6.40;48.70;;;;;;4776034;29;20118;-77
2022/03/10 08:10:48;;;;;;;6.38;2.20;;;6.40;48.30;;;;;;4776059;29;20087;-77
2022/03/10 08:13:15;;;;;;;4.15;1.45;;;6.40;48.70;;;;;;4778776;29;20203;-77
2022/03/10 08:15:43;;;;;;;4.05;2.10;;;6.40;46.90;;;;;;4774089;29;20116;-77
2022/03/10 08:18:11;;;;;;;4.85;1.83;;;6.30;47.30;;;;;;4790843;29;20824;-77
2022/03/10 08:20:40;;;;;;;5.32;1.70;;;6.50;46.70;;;;;;4777113;29;20145;-76
2022/03/10 08:23:07;;;;;;;10.98;2.75;;;6.50;46.70;;;;;;4775376;29;20047;-77
2022/03/10 08:25:38;;;;;;;9.30;1.52;;;6.50;47.40;;;;;;4776758;29;20044;-78
2022/03/10 08:28:08;;;;;;;4.00;1.70;;;6.60;45.50;;;;;;4769505;29;20105;-76
2022/03/10 08:30:35;;;;;;;4.28;1.52;;;6.80;45.80;;;;;;4773965;29;20086;-77
2022/03/10 08:33:03;;;;;;;4.63;1.25;;;6.80;44.30;;;;;;4785868;29;20051;-77
2022/03/10 08:35:30;;;;;;;4.18;1.08;;;7.00;43.90;;;;;;4781801;29;22609;-77
2022/03/10 08:37:58;;;;;;;6.78;1.52;;;7.10;43.20;;;;;;4801368;29;20784;-77
2022/03/10 08:40:25;;;;;;;5.15;1.58;;;7.30;42.60;;;;;;4783657;29;20060;-77
2022/03/10 08:42:53;;;;;;;2.80;0.57;;;7.50;41.90;;;;;;4796293;29;20123;-77
2022/03/10 08:45:20;;;;;;;3.03;0.73;;;7.60;40.30;;;;;;4780431;29;20085;-77
2022/03/10 08:47:48;;;;;;;5.20;1.05;;;7.70;39.70;;;;;;4782344;29;20044;-77
2022/03/10 08:50:24;;;;;;;3.60;0.85;;;7.70;40.30;;;;;;4786101;29;20434;-77
2022/03/10 08:52:51;;;;;;;6.28;1.00;;;7.90;40.20;;;;;;4768164;29;20057;-77
2022/03/10 08:55:20;;;;;;;8.00;1.40;;;7.80;39.80;;;;;;4781815;29;20520;-77
2022/03/10 08:57:48;;;;;;;6.60;1.40;;;7.90;40.30;;;;;;4784976;29;20047;-77
2022/03/10 09:00:16;;;;;;;4.47;1.35;;;8.00;40.00;;;;;;4781449;29;20104;-77
2022/03/10 09:02:43;;;;;;;3.13;1.45;;;7.90;39.60;;;;;;4785149;29;20058;-77
2022/03/10 09:05:11;;;;;;;4.30;2.17;;;7.80;40.20;;;;;;4796270;29;20535;-77
2022/03/10 09:07:38;;;;;;;5.35;1.17;;;8.00;40.10;;;;;;4778881;29;20054;-77
2022/03/10 09:10:10;;;;;;;4.78;1.50;;;7.90;38.70;;;;;;4784349;29;20646;-77
2022/03/10 09:12:38;;;;;;;4.05;0.70;;;8.00;38.80;;;;;;4809433;29;20057;-77
2022/03/10 09:15:07;;;;;;;2.67;1.00;;;8.10;38.00;;;;;;4793782;29;20047;-76
2022/03/10 09:17:34;;;;;;;3.92;1.80;;;8.10;37.60;;;;;;4810152;29;20047;-77
2022/03/10 09:20:04;;;;;;;3.30;0.80;;;8.40;37.40;;;;;;4793277;29;20106;-77
2022/03/10 09:22:32;;;;;;;6.55;1.38;;;8.50;37.70;;;;;;4796046;29;20521;-77
2022/03/10 09:25:02;;;;;;;2.40;0.80;;;8.60;36.60;;;;;;4808467;29;20054;-76
2022/03/10 09:27:30;;;;;;;2.70;0.77;;;8.50;36.60;;;;;;4793558;29;20146;-77
2022/03/10 09:29:57;;;;;;;3.40;1.00;;;8.50;37.10;;;;;;4791482;29;20067;-76
2022/03/10 09:32:24;;;;;;;3.45;1.40;;;8.70;37.70;;;;;;4791134;29;20113;-76
2022/03/10 09:34:51;;;;;;;3.15;0.70;;;8.50;36.10;;;;;;4789587;29;20065;-76
2022/03/10 09:37:18;;;;;;;3.80;1.02;;;8.60;36.90;;;;;;4787753;29;20054;-76
2022/03/10 09:39:46;;;;;;;3.97;1.05;;;8.80;36.30;;;;;;4774602;29;20490;-75
2022/03/10 09:42:15;;;;;;;3.10;0.70;;;9.00;35.90;;;;;;4788662;29;20739;-75
2022/03/10 09:44:45;;;;;;;2.05;0.82;;;9.10;36.00;;;;;;4806476;29;20054;-76
2022/03/10 09:47:13;;;;;;;5.50;1.02;;;9.20;36.10;;;;;;4791003;29;20123;-75
2022/03/10 09:49:40;;;;;;;2.42;1.08;;;9.00;35.90;;;;;;4789409;29;20527;-77
2022/03/10 09:52:11;;;;;;;7.20;0.82;;;9.10;35.80;;;;;;4791277;29;20055;-75
2022/03/10 09:54:38;;;;;;;4.88;1.20;;;9.20;36.40;;;;;;4789234;29;20061;-75
2022/03/10 09:57:07;;;;;;;3.75;1.50;;;9.20;35.30;;;;;;4789123;29;20403;-75
2022/03/10 09:59:47;;;;;;;3.60;1.13;;;9.20;36.20;;;;;;4802046;29;20050;-76
2022/03/10 10:02:14;;;;;;;4.40;1.00;;;9.30;35.60;;;;;;4791383;29;20083;-76
2022/03/10 10:04:42;;;;;;;3.00;0.90;;;9.10;34.30;;;;;;4791222;29;20039;-76
2022/03/10 10:07:11;;;;;;;3.58;1.10;;;9.20;35.00;;;;;;4803735;29;20062;-76
2022/03/10 10:09:58;;;;;;;3.83;1.20;;;9.30;35.10;;;;;;4803712;29;20062;-76
2022/03/10 10:12:30;;;;;;;3.67;0.90;;;9.10;35.00;;;;;;4803003;29;20062;-75
2022/03/10 10:14:58;;;;;;;4.57;0.95;;;9.40;34.70;;;;;;4791960;29;20054;-75
2022/03/10 10:17:35;;;;;;;3.53;1.02;;;9.50;34.70;;;;;;4788911;29;20047;-76
2022/03/10 10:20:22;;;;;;;2.92;1.05;;;9.50;33.90;;;;;;4789923;29;20133;-76
2022/03/10 10:22:51;;;;;;;3.60;1.35;;;9.30;34.40;;;;;;4787477;29;20047;-76
2022/03/10 10:25:23;;;;;;;3.83;1.10;;;9.50;35.40;;;;;;4789155;29;20059;-76
2022/03/10 10:27:50;;;;;;;1.88;0.80;;;9.70;35.60;;;;;;4787875;29;20090;-75
2022/03/10 10:30:17;;;;;;;4.60;1.40;;;9.60;35.20;;;;;;4804119;29;20078;-76
2022/03/10 10:32:49;;;;;;;5.55;2.42;;;9.50;35.30;;;;;;4788294;29;20103;-76
2022/03/10 10:35:21;;;;;;;5.55;1.40;;;9.50;34.30;;;;;;4804102;29;20399;-75
2022/03/10 10:37:54;;;;;;;4.22;1.23;;;9.70;34.60;;;;;;4791160;29;20051;-75
2022/03/10 10:40:24;;;;;;;4.25;2.10;;;9.80;34.70;;;;;;4772385;29;20135;-75
2022/03/10 10:42:51;;;;;;;5.30;1.30;;;10.00;35.20;;;;;;4791149;29;20047;-76
2022/03/10 10:45:34;;;;;;;3.63;1.23;;;10.20;34.40;;;;;;4806242;29;20110;-77
2022/03/10 10:48:46;;;;;;;3.03;1.10;;;10.40;33.80;;;;;;4793910;29;20379;-77
2022/03/10 10:51:13;;;;;;;3.85;1.63;;;10.30;33.70;;;;;;4793626;29;20050;-77
2022/03/10 10:53:40;;;;;;;5.50;1.77;;;10.30;34.20;;;;;;4792759;29;20131;-77
2022/03/10 10:56:07;;;;;;;4.47;1.27;;;10.30;33.90;;;;;;4794409;29;20078;-77
2022/03/10 10:58:35;;;;;;;3.53;1.10;;;10.20;32.70;;;;;;4809766;29;20047;-76
2022/03/10 11:01:03;;;;;;;5.35;1.27;;;10.20;33.90;;;;;;4794324;29;20043;-78
2022/03/10 11:03:37;;;;;;;6.03;1.67;;;10.20;32.80;;;;;;4778508;29;20473;-76
2022/03/10 11:06:04;;;;;;;4.82;1.42;;;10.30;33.20;;;;;;4791869;29;20050;-77
2022/03/10 11:08:31;;;;;;;2.83;0.85;;;10.20;34.00;;;;;;4804602;29;20061;-77
2022/03/10 11:10:59;;;;;;;3.08;1.00;;;10.40;34.40;;;;;;4810667;29;20442;-77
2022/03/10 11:13:28;;;;;;;4.20;1.45;;;10.50;33.10;;;;;;4792837;29;20051;-77
2022/03/10 11:15:57;;;;;;;6.22;1.30;;;10.50;32.90;;;;;;4827007;29;20050;-76
2022/03/10 11:18:26;;;;;;;4.10;1.40;;;10.60;33.70;;;;;;4806560;29;20091;-76
2022/03/10 11:21:28;;;;;;;4.22;1.52;;;10.70;34.00;;;;;;4805218;29;20088;-77
2022/03/10 11:24:16;;;;;;;3.80;1.40;;;10.60;34.00;;;;;;4793197;29;20149;-76
2022/03/10 11:26:58;;;;;;;3.38;1.15;;;10.60;34.10;;;;;;4819928;29;20779;-77
2022/03/10 11:29:26;;;;;;;3.78;1.50;;;10.50;33.80;;;;;;4826054;29;20118;-77
2022/03/10 11:31:55;;;;;;;3.47;1.10;;;10.40;34.20;;;;;;4794720;29;20050;-76
2022/03/10 11:34:51;;;;;;;7.15;2.28;;;10.50;34.60;;;;;;4811228;29;20050;-77
2022/03/10 11:37:40;;;;;;;4.18;1.90;;;10.80;33.90;;;;;;4796217;29;20181;-76
2022/03/10 11:40:14;;;;;;;4.00;1.55;;;10.90;33.90;;;;;;4808362;29;20054;-78
2022/03/10 11:42:42;;;;;;;6.28;1.77;;;11.00;33.90;;;;;;4807086;29;20054;-76
2022/03/10 11:45:19;;;;;;;4.03;1.65;;;11.00;33.70;;;;;;4791509;29;20058;-76
2022/03/10 11:47:48;;;;;;;4.22;1.55;;;10.90;33.90;;;;;;4809350;29;20425;-77
2022/03/10 11:50:24;;;;;;;5.13;2.15;;;10.80;34.50;;;;;;4790191;29;20054;-76
2022/03/10 11:53:03;;;;;;;5.10;1.60;;;11.00;33.70;;;;;;4793493;29;21748;-77
2022/03/10 11:55:58;;;;;;;4.97;2.13;;;11.30;33.90;;;;;;4792105;29;20411;-76
2022/03/10 11:58:36;;;;;;;3.88;1.63;;;11.20;34.10;;;;;;4821139;29;20047;-75
2022/03/10 12:01:03;;;;;;;3.13;1.70;;;11.20;34.00;;;;;;4807256;29;20053;-76
2022/03/10 12:03:35;;;;;;;6.47;2.28;;;11.50;33.90;;;;;;4807925;29;20046;-77
2022/03/10 12:06:04;;;;;;;4.38;1.73;;;11.20;33.20;;;;;;4809958;29;20046;-76
2022/03/10 12:08:37;;;;;;;6.22;1.58;;;11.20;33.60;;;;;;4797948;29;20051;-76
2022/03/10 12:11:05;;;;;;;;;;;11.10;34.00;;;;;;4812483;29;20078;-76
2022/03/10 12:13:36;;;;;;;4.35;1.75;;;11.20;34.30;;;;;;4813107;29;19939;-77
2022/03/10 12:16:27;;;;;;;5.13;1.63;;;11.30;34.10;;;;;;4797540;29;20519;-77
2022/03/10 12:18:55;;;;;;;5.40;1.38;;;11.20;33.60;;;;;;4806506;29;20066;-77
2022/03/10 12:21:27;;;;;;;4.43;1.20;;;11.00;33.70;;;;;;4794714;29;20498;-76
2022/03/10 12:23:56;;;;;;;3.95;1.23;;;11.30;33.40;;;;;;4808910;29;20119;-74
2022/03/10 12:26:37;;;;;;;5.30;1.52;;;11.10;33.40;;;;;;4792632;29;20628;-74
2022/03/10 12:29:10;;;;;;;4.43;1.52;;;10.90;34.70;;;;;;4791768;29;20170;-75
2022/03/10 12:31:39;;;;;;;8.35;2.60;;;11.00;34.10;;;;;;4808972;29;20054;-74
2022/03/10 12:34:14;;;;;;;7.50;2.15;;;11.20;33.80;;;;;;4809612;29;20138;-74
2022/03/10 12:36:49;;;;;;;4.10;1.42;;;11.30;33.40;;;;;;4792417;29;20072;-74
2022/03/10 12:39:17;;;;;;;6.30;1.85;;;11.60;33.20;;;;;;4795662;29;20050;-75
2022/03/10 12:41:48;;;;;;;8.20;1.73;;;11.60;32.90;;;;;;4810732;29;20482;-74
2022/03/10 12:44:19;;;;;;;3.47;1.48;;;11.60;33.40;;;;;;4794889;29;20554;-77
2022/03/10 12:46:46;;;;;;;6.68;2.25;;;11.50;33.80;;;;;;4825564;29;20154;-74
2022/03/10 12:49:46;;;;;;;3.78;1.40;;;11.60;33.90;;;;;;4812428;29;20050;-76
2022/03/10 12:52:16;;;;;;;4.55;1.42;;;11.60;33.60;;;;;;4810975;29;20129;-75
2022/03/10 12:54:45;;;;;;;4.22;1.60;;;11.60;33.40;;;;;;4793937;29;20146;-76
2022/03/10 12:57:13;;;;;;;4.75;1.80;;;11.70;32.80;;;;;;4808593;29;20080;-75
2022/03/10 12:59:41;;;;;;;5.50;1.42;;;11.70;33.30;;;;;;4811346;29;20075;-77
2022/03/10 13:02:13;;;;;;;4.55;1.70;;;11.60;33.30;;;;;;4793714;29;20057;-76
2022/03/10 13:04:47;;;;;;;5.43;1.70;;;11.40;33.50;;;;;;4808952;29;20047;-76
2022/03/10 13:07:17;;;;;;;4.45;1.73;;;11.50;33.60;;;;;;4809575;29;20114;-75
2022/03/10 13:10:13;;;;;;;6.68;1.40;;;11.60;33.40;;;;;;4810497;29;20062;-77